This is the latest recevied weather packets stored in our database for station/object CA3EAP-13. If no packets are shown the sender has not sent any weather packets the latest 10 day(s).
| Time | Temp. | Humidity | Pressure | Rain* | Wind** | Luminosity | Snow |
|---|---|---|---|---|---|---|---|
| 1777924505 | 23.33° C | 26% | 1010.9 hPa | - | - | - | - |
| 1777918505 | 23.89° C | 26% | 1011.5 hPa | - | - | - | - |
| 1777916105 | 23.33° C | 25% | 1012.3 hPa | - | - | - | - |
| 1777915505 | 23.33° C | 25% | 1012.3 hPa | - | - | - | - |
| 1777911905 | 23.33° C | 25% | 1013 hPa | - | - | - | - |
| 1777908905 | 22.78° C | 26% | 1013.5 hPa | - | - | - | - |
| 1777907105 | 21.11° C | 28% | 1013.9 hPa | - | - | - | - |
| 1777905305 | 20° C | 32% | 1014.3 hPa | - | - | - | - |
| 1777904705 | 19.44° C | 35% | 1014.4 hPa | - | - | - | - |
| 1777904105 | 19.44° C | 36% | 1014.5 hPa | - | - | - | - |
| 1777901705 | 18.89° C | 36% | 1014.6 hPa | - | - | - | - |
| 1777901105 | 18.89° C | 37% | 1014.5 hPa | - | - | - | - |
| 1777900505 | 18.89° C | 35% | 1014.6 hPa | - | - | - | - |
| 1777898105 | 17.78° C | 38% | 1014.6 hPa | - | - | - | - |
| 1777897505 | 18.33° C | 37% | 1014.5 hPa | - | - | - | - |
| 1777896905 | 18.33° C | 39% | 1014.5 hPa | - | - | - | - |
| 1777895705 | 18.33° C | 39% | 1014.4 hPa | - | - | - | - |
| 1777895105 | 17.78° C | 40% | 1014.4 hPa | - | - | - | - |
| 1777893905 | 17.78° C | 41% | 1014.4 hPa | - | - | - | - |
| 1777893305 | 17.78° C | 41% | 1014.4 hPa | - | - | - | - |
| 1777892705 | 17.78° C | 41% | 1014.3 hPa | - | - | - | - |
| 1777892105 | 18.33° C | 41% | 1014.2 hPa | - | - | - | - |
| 1777889705 | 17.78° C | 39% | 1014.2 hPa | - | - | - | - |
| 1777889105 | 17.78° C | 39% | 1014.2 hPa | - | - | - | - |
| 1777887905 | 18.33° C | 38% | 1014.1 hPa | - | - | - | - |
* Rain since midnight (hover to see other rain measurements)
** Current wind speed in m/s (hover to see current wind gust speed)